Mico, Texas
Current Conditions -  °F | °C
As of 2:55 PM on Tuesday 27 Jan 2015 (Local Time) from KCVB Reporting Station
Clear Clear  
Wind Chill: 80°   Ceiling: Unl
Heat Index: 80°   Visibility: 10mi
Dew Point: 32°   Wind: 3mph
Humidity: 17%   Direction: 220°SW
Pressure: 30.15"   Gusts: NA
Location:  29.54°N, 98.92°W
Report Text: KCVB 272055Z AUTO 22003KT 10SM CLR 27/00 A3015 RMK AO2 T02691001
Loading
Personal Weather Stations






























Interactive Weather Map New forecast layout! Learn more

10-Day Weather Forecast

Advertisements
Track Severe Weather on mobile